North Webster, IN (46555)

11:15 AM EDT on August 29, 2016 (GMT -0400)
APRSWXNET | | Change Station

Elev 881 ft 41.31 °N, 85.72 °W | Updated 17 minutes ago

Scattered Clouds
Scattered Clouds
77 °F
Feels Like 78 °F
N
5
Wind Variable Wind from ESE
Gusts 9.0 mph

Today
High -- | Low -- °F
--% Chance of Precip.
Yesterday
High -- | Low -- °F
Precip. -- in
Pressure 30.27 in
Visibility 10.0 miles
Clouds Scattered Clouds 1000 ft
Scattered Clouds 10000 ft
Heat Index 78 °F
Dew Point 73 °F
Humidity 88%
Rainfall in
Snow Depth Not available.
7:06 AM 8:19 PM
Waning Crescent, 8% visible
METAR KASW 291455Z AUTO 10008KT 10SM SCT010 SCT100 25/23 A3027 RMK AO2
Pressure 30.27 in
Visibility 10.0 miles
Clouds Scattered Clouds 1000 ft
Scattered Clouds 10000 ft
Heat Index 78 °F
Dew Point 73 °F
Humidity 88%
Rainfall in
Snow Depth Not available.
7:06 AM 8:19 PM
Waning Crescent, 8% visible
METAR KASW 291455Z AUTO 10008KT 10SM SCT010 SCT100 25/23 A3027 RMK AO2

10-Day Weather Forecast

Almanac

Astronomy

Aug. 29, 2016 Rise Set
Actual Time
Civil Twilight
Nautical Twilight
Astronomical Twilight
Moon
Length of Visible Light
Length of Day
Tomorrow will be .
, % of the Moon is Illuminated

Today's Extremes

State Highs State Lows

Community

WunderPhotos

Upload Photos

1,935,841 photos uploaded!

WunderBlog® & News

Nearby

Air Quality

  Air Quality AQ Index Pollutant
Not available.

Snow Depth

Station Depth Elevation

Earthquake Activity

City Distance Mag. Time & Date
Minimum magnitude displayed is 2.5.

Coastal Water Temperatures

Place Temperature

Stations

Nearby Weather Stations

Station Location Temp. Windchill Dew Point Humidity Wind Precip. Elev Updated Type
                   

Watches & Warnings

There are currently no watches in effect.